Baku FIR

The Baku Flight Information Region (UBBA) provides the organization of air traffic in the airspace of Azerbaijan in the VATSIM network.

Baku Control (UBBA_CTR) sectors

United 125.500

Management

Grigori Badalov*

Curator
FIR Instructors
Grigori Badalov (Instructor)
Part of
Caucasus

FIR air traffic controllers

Name Rating Units *
Chen Cheng Instructor UBBA_CTR
Dallon Pereira Supervisor UBBA_CTR
Deniz Isiklar Controller UBBA_CTR
Ismail Hassan Senior Student UBBA_CTR
Muhammad Abdullah Controller UBBA_CTR
Grigori Badalov Instructor UBBA_CTR
Ivan Chernov Senior Controller UBBA_CTR
Valeriy Polostyanoy Instructor UBBA_CTR
Veda Moola Senior Student UBBB_DEP , UBBB_APP 
Alikhan Aidarbek Student UBBB_TWR 
Andrey Zonov Student 2 UBBB_GND
Artem Tsendrovsky Senior Student UBBB_DEP, UBBB_APP
Emanuel Teymoorian Student 2 UBBB_APP*, UBBB_DEP*
Joshua Ong Student 2 UBBB_TWR
Suwan Kim Student 2 UBBB_APP*, UBBB_DEP*

FIR airports

ICAO City Title Weather
UBBB Baku Heydar Aliyev International Airport UBBB 302130Z 03012KT 9999 -SHRA SCT030 SCT050CB 07/04 Q1033 NOSIG
UBBQ Gabala Gabala International Airport UBBQ 302100Z 00000KT 9999 -RA SCT004 OVC012 03/02 Q1031 NOSIG RMK MT OBSC
UBBG Ganja Ganja Airport UBBG 302130Z 08006KT 9999 OVC010 03/03 Q1030 NOSIG
UBBN Nakhchivan Nakhchivan Airport UBBN 302130Z 09006KT 8000 OVC040 06/04 Q1024 NOSIG RMK MT OBSC QFE693
UBBL Lankaran Lankaran International Airport UBBL 302100Z 31008KT 9999 -RA OVC016 07/07 Q1032 NOSIG RMK MT OBSC